San Antonio, Texas
Traffic Map
Current Weather Conditions
San Antonio, Texas
Few Clouds
Few Clouds
79°
Feels Like: 82°
Wind Chill: 79° Ceiling: Unl
Heat Index: 82° Visibility: 10mi
Dew Point: 70° Wind: 10mph
Humidity: 74% Direction: 160° (SSE)
Pressure: 29.94in Gusts: 0mph
Raw Report DataKSAT 190651Z 16009KT 10SM FEW250 26/21 A2994 RMK AO2 SLP117 T02610211
Traffic Incident Summary
Active as of:
Severity:
Category:
InformationThere was an issue retrieving the traffic information for this location. Please try a different location or try again shortly.
Advertisements